sensor_id;sensor_type;location;lat;lon;timestamp;temperature;humidity
7204;DHT22;3643;52.460;13.322;2022-11-13T04:53:02;9.50;99.90
7204;DHT22;3643;52.460;13.322;2022-11-13T04:55:31;9.50;99.90
7204;DHT22;3643;52.460;13.322;2022-11-13T04:58:00;9.50;99.90
7204;DHT22;3643;52.460;13.322;2022-11-13T05:00:28;9.50;99.90
7204;DHT22;3643;52.460;13.322;2022-11-13T05:02:57;9.50;99.90
7204;DHT22;3643;52.460;13.322;2022-11-13T05:05:25;9.50;99.90
7204;DHT22;3643;52.460;13.322;2022-11-13T05:07:55;9.40;99.90
7204;DHT22;3643;52.460;13.322;2022-11-13T05:10:25;9.40;99.90
7204;DHT22;3643;52.460;13.322;2022-11-13T05:12:55;9.40;99.90
7204;DHT22;3643;52.460;13.322;2022-11-13T05:15:23;9.40;99.90
7204;DHT22;3643;52.460;13.322;2022-11-13T05:17:52;9.40;99.90
7204;DHT22;3643;52.460;13.322;2022-11-13T05:20:21;9.40;99.90
7204;DHT22;3643;52.460;13.322;2022-11-13T05:22:50;9.40;99.90
7204;DHT22;3643;52.460;13.322;2022-11-13T05:25:18;9.40;99.90
7204;DHT22;3643;52.460;13.322;2022-11-13T05:27:48;9.40;99.90
7204;DHT22;3643;52.460;13.322;2022-11-13T05:30:18;9.40;99.90
7204;DHT22;3643;52.460;13.322;2022-11-13T05:32:46;9.40;99.90
7204;DHT22;3643;52.460;13.322;2022-11-13T05:35:15;9.40;99.90
7204;DHT22;3643;52.460;13.322;2022-11-13T05:37:43;9.40;99.90
7204;DHT22;3643;52.460;13.322;2022-11-13T05:40:12;9.40;99.90
7204;DHT22;3643;52.460;13.322;2022-11-13T05:42:40;9.40;99.90
7204;DHT22;3643;52.460;13.322;2022-11-13T05:45:10;9.40;99.90
7204;DHT22;3643;52.460;13.322;2022-11-13T05:47:39;9.40;99.90
7204;DHT22;3643;52.460;13.322;2022-11-13T05:50:09;9.40;99.90
7204;DHT22;3643;52.460;13.322;2022-11-13T05:52:38;9.40;99.90
7204;DHT22;3643;52.460;13.322;2022-11-13T05:55:07;9.40;99.90
7204;DHT22;3643;52.460;13.322;2022-11-13T05:57:36;9.40;99.90
7204;DHT22;3643;52.460;13.322;2022-11-13T06:00:10;9.40;99.90
7204;DHT22;3643;52.460;13.322;2022-11-13T06:02:39;9.40;99.90
7204;DHT22;3643;52.460;13.322;2022-11-13T06:05:08;9.40;99.90
7204;DHT22;3643;52.460;13.322;2022-11-13T06:07:36;9.40;99.90
7204;DHT22;3643;52.460;13.322;2022-11-13T06:10:06;9.40;99.90
7204;DHT22;3643;52.460;13.322;2022-11-13T06:12:34;9.40;99.90
7204;DHT22;3643;52.460;13.322;2022-11-13T06:15:03;9.40;99.90
7204;DHT22;3643;52.460;13.322;2022-11-13T06:17:34;9.40;99.90
7204;DHT22;3643;52.460;13.322;2022-11-13T06:20:02;9.40;99.90
7204;DHT22;3643;52.460;13.322;2022-11-13T06:22:31;9.40;99.90
7204;DHT22;3643;52.460;13.322;2022-11-13T06:25:00;9.40;99.90
7204;DHT22;3643;52.460;13.322;2022-11-13T06:27:29;9.40;99.90
7204;DHT22;3643;52.460;13.322;2022-11-13T06:29:57;9.40;99.90
7204;DHT22;3643;52.460;13.322;2022-11-13T06:32:26;9.40;99.90
7204;DHT22;3643;52.460;13.322;2022-11-13T06:34:55;9.40;99.90
7204;DHT22;3643;52.460;13.322;2022-11-13T06:37:25;9.40;99.90
7204;DHT22;3643;52.460;13.322;2022-11-13T06:39:59;9.40;99.90
7204;DHT22;3643;52.460;13.322;2022-11-13T06:42:28;9.40;99.90
7204;DHT22;3643;52.460;13.322;2022-11-13T06:44:56;9.40;99.90
7204;DHT22;3643;52.460;13.322;2022-11-13T06:47:27;9.50;99.90
7204;DHT22;3643;52.460;13.322;2022-11-13T06:49:57;9.50;99.90
7204;DHT22;3643;52.460;13.322;2022-11-13T06:52:26;8.50;99.90
7204;DHT22;3643;52.460;13.322;2022-11-13T06:54:54;9.50;99.90
7204;DHT22;3643;52.460;13.322;2022-11-13T06:57:23;9.50;99.90
7204;DHT22;3643;52.460;13.322;2022-11-13T06:59:54;9.50;99.90
7204;DHT22;3643;52.460;13.322;2022-11-13T07:02:22;9.50;99.90
7204;DHT22;3643;52.460;13.322;2022-11-13T07:04:51;9.50;99.90
7204;DHT22;3643;52.460;13.322;2022-11-13T07:07:21;9.50;99.90
7204;DHT22;3643;52.460;13.322;2022-11-13T07:09:50;9.60;99.90
7204;DHT22;3643;52.460;13.322;2022-11-13T07:12:19;8.40;99.90
7204;DHT22;3643;52.460;13.322;2022-11-13T07:14:49;9.60;99.90
7204;DHT22;3643;52.460;13.322;2022-11-13T07:17:18;9.60;99.90
7204;DHT22;3643;52.460;13.322;2022-11-13T07:19:46;9.50;99.90
7204;DHT22;3643;52.460;13.322;2022-11-13T07:22:18;9.60;99.90
7204;DHT22;3643;52.460;13.322;2022-11-13T07:24:48;9.60;99.90
7204;DHT22;3643;52.460;13.322;2022-11-13T07:27:16;9.60;99.90
7204;DHT22;3643;52.460;13.322;2022-11-13T07:29:46;9.60;99.90
7204;DHT22;3643;52.460;13.322;2022-11-13T07:32:14;9.60;99.90
7204;DHT22;3643;52.460;13.322;2022-11-13T07:34:43;9.60;99.90
7204;DHT22;3643;52.460;13.322;2022-11-13T07:37:11;9.60;99.90
7204;DHT22;3643;52.460;13.322;2022-11-13T07:39:40;9.60;99.90
7204;DHT22;3643;52.460;13.322;2022-11-13T07:42:11;9.60;99.90
7204;DHT22;3643;52.460;13.322;2022-11-13T07:44:40;9.60;99.90
7204;DHT22;3643;52.460;13.322;2022-11-13T07:47:24;9.60;99.90
7204;DHT22;3643;52.460;13.322;2022-11-13T07:49:53;9.60;99.90
7204;DHT22;3643;52.460;13.322;2022-11-13T07:52:32;9.60;99.90
7204;DHT22;3643;52.460;13.322;2022-11-13T07:55:01;9.60;99.90
7204;DHT22;3643;52.460;13.322;2022-11-13T07:57:31;9.70;99.90
7204;DHT22;3643;52.460;13.322;2022-11-13T07:59:59;9.70;99.90
7204;DHT22;3643;52.460;13.322;2022-11-13T08:02:28;9.70;99.90
7204;DHT22;3643;52.460;13.322;2022-11-13T08:04:57;9.70;99.90
7204;DHT22;3643;52.460;13.322;2022-11-13T08:07:25;9.70;99.90
7204;DHT22;3643;52.460;13.322;2022-11-13T08:09:54;9.50;99.90
7204;DHT22;3643;52.460;13.322;2022-11-13T08:12:22;9.70;99.90
7204;DHT22;3643;52.460;13.322;2022-11-13T08:14:53;9.70;99.90
7204;DHT22;3643;52.460;13.322;2022-11-13T08:17:21;9.70;99.90
7204;DHT22;3643;52.460;13.322;2022-11-13T08:19:49;9.70;99.90
7204;DHT22;3643;52.460;13.322;2022-11-13T08:22:18;9.70;99.90
7204;DHT22;3643;52.460;13.322;2022-11-13T08:24:47;9.80;99.90
7204;DHT22;3643;52.460;13.322;2022-11-13T08:27:17;9.80;99.90
7204;DHT22;3643;52.460;13.322;2022-11-13T08:29:45;9.80;99.90
7204;DHT22;3643;52.460;13.322;2022-11-13T08:32:16;9.80;99.90
7204;DHT22;3643;52.460;13.322;2022-11-13T08:34:45;9.90;99.90
7204;DHT22;3643;52.460;13.322;2022-11-13T08:37:16;9.90;99.90
7204;DHT22;3643;52.460;13.322;2022-11-13T08:39:45;9.90;99.90
7204;DHT22;3643;52.460;13.322;2022-11-13T08:42:13;9.90;99.90
7204;DHT22;3643;52.460;13.322;2022-11-13T08:44:42;9.90;99.90
7204;DHT22;3643;52.460;13.322;2022-11-13T08:47:11;10.00;99.90
7204;DHT22;3643;52.460;13.322;2022-11-13T08:49:41;10.00;99.90
7204;DHT22;3643;52.460;13.322;2022-11-13T08:52:09;10.00;99.90
7204;DHT22;3643;52.460;13.322;2022-11-13T08:54:38;10.00;99.90
7204;DHT22;3643;52.460;13.322;2022-11-13T08:57:10;10.10;99.90
7204;DHT22;3643;52.460;13.322;2022-11-13T08:59:38;10.10;99.90
7204;DHT22;3643;52.460;13.322;2022-11-13T09:02:08;10.10;99.90
7204;DHT22;3643;52.460;13.322;2022-11-13T09:04:38;10.20;99.90
7204;DHT22;3643;52.460;13.322;2022-11-13T09:07:08;10.20;99.90
7204;DHT22;3643;52.460;13.322;2022-11-13T09:09:38;10.20;99.90
7204;DHT22;3643;52.460;13.322;2022-11-13T09:12:08;10.20;99.90
7204;DHT22;3643;52.460;13.322;2022-11-13T09:14:37;10.20;99.90
7204;DHT22;3643;52.460;13.322;2022-11-13T09:17:05;10.30;99.90
7204;DHT22;3643;52.460;13.322;2022-11-13T09:19:34;10.30;99.90
7204;DHT22;3643;52.460;13.322;2022-11-13T09:22:02;10.30;99.90
7204;DHT22;3643;52.460;13.322;2022-11-13T09:24:32;10.40;99.90
7204;DHT22;3643;52.460;13.322;2022-11-13T09:27:01;10.30;99.90
7204;DHT22;3643;52.460;13.322;2022-11-13T09:29:29;10.30;99.90
7204;DHT22;3643;52.460;13.322;2022-11-13T09:31:58;10.30;99.90
7204;DHT22;3643;52.460;13.322;2022-11-13T09:34:27;10.30;99.90
7204;DHT22;3643;52.460;13.322;2022-11-13T09:36:55;10.30;99.90
7204;DHT22;3643;52.460;13.322;2022-11-13T09:39:24;10.30;99.90
7204;DHT22;3643;52.460;13.322;2022-11-13T09:42:01;10.30;99.90
7204;DHT22;3643;52.460;13.322;2022-11-13T09:44:39;10.40;99.90
7204;DHT22;3643;52.460;13.322;2022-11-13T09:47:16;10.40;99.90
7204;DHT22;3643;52.460;13.322;2022-11-13T09:49:49;10.40;99.90
7204;DHT22;3643;52.460;13.322;2022-11-13T09:52:22;10.40;99.90
7204;DHT22;3643;52.460;13.322;2022-11-13T09:54:53;10.40;99.90
7204;DHT22;3643;52.460;13.322;2022-11-13T09:57:29;10.30;99.90
7204;DHT22;3643;52.460;13.322;2022-11-13T10:00:03;10.40;99.90
7204;DHT22;3643;52.460;13.322;2022-11-13T10:02:44;10.40;99.90
7204;DHT22;3643;52.460;13.322;2022-11-13T10:05:21;10.40;99.90
7204;DHT22;3643;52.460;13.322;2022-11-13T10:07:55;10.40;99.90
7204;DHT22;3643;52.460;13.322;2022-11-13T10:10:42;10.40;99.90
7204;DHT22;3643;52.460;13.322;2022-11-13T10:13:27;10.40;99.90
7204;DHT22;3643;52.460;13.322;2022-11-13T10:16:03;10.50;99.90
7204;DHT22;3643;52.460;13.322;2022-11-13T10:18:35;10.50;99.90
7204;DHT22;3643;52.460;13.322;2022-11-13T10:21:11;10.50;99.90
7204;DHT22;3643;52.460;13.322;2022-11-13T10:23:48;10.60;99.90
7204;DHT22;3643;52.460;13.322;2022-11-13T10:26:20;10.60;99.90
7204;DHT22;3643;52.460;13.322;2022-11-13T10:28:55;10.70;99.90
7204;DHT22;3643;52.460;13.322;2022-11-13T10:31:26;10.80;99.90
7204;DHT22;3643;52.460;13.322;2022-11-13T10:33:56;10.90;99.90
7204;DHT22;3643;52.460;13.322;2022-11-13T10:36:33;11.00;99.90
7204;DHT22;3643;52.460;13.322;2022-11-13T10:39:05;11.00;99.90
7204;DHT22;3643;52.460;13.322;2022-11-13T10:41:44;11.00;99.90
7204;DHT22;3643;52.460;13.322;2022-11-13T10:44:21;11.10;99.90
7204;DHT22;3643;52.460;13.322;2022-11-13T10:46:49;11.00;99.90
7204;DHT22;3643;52.460;13.322;2022-11-13T10:49:20;11.10;99.90
7204;DHT22;3643;52.460;13.322;2022-11-13T10:51:55;10.80;99.90
7204;DHT22;3643;52.460;13.322;2022-11-13T10:54:26;11.10;99.90
7204;DHT22;3643;52.460;13.322;2022-11-13T10:57:00;11.10;99.90
7204;DHT22;3643;52.460;13.322;2022-11-13T10:59:40;11.20;99.90
7204;DHT22;3643;52.460;13.322;2022-11-13T11:02:16;11.10;99.90
7204;DHT22;3643;52.460;13.322;2022-11-13T11:04:45;11.20;99.90
7204;DHT22;3643;52.460;13.322;2022-11-13T11:07:16;11.10;99.90
7204;DHT22;3643;52.460;13.322;2022-11-13T11:09:49;11.10;99.90
7204;DHT22;3643;52.460;13.322;2022-11-13T11:12:20;11.20;99.90
7204;DHT22;3643;52.460;13.322;2022-11-13T11:15:03;11.30;99.90
7204;DHT22;3643;52.460;13.322;2022-11-13T11:17:40;11.40;99.90
7204;DHT22;3643;52.460;13.322;2022-11-13T11:20:24;11.50;99.90
7204;DHT22;3643;52.460;13.322;2022-11-13T11:23:03;11.50;99.90
7204;DHT22;3643;52.460;13.322;2022-11-13T11:25:39;11.50;99.90
7204;DHT22;3643;52.460;13.322;2022-11-13T11:28:13;11.50;99.90
7204;DHT22;3643;52.460;13.322;2022-11-13T11:30:52;11.50;99.90
7204;DHT22;3643;52.460;13.322;2022-11-13T11:33:30;11.50;99.90
7204;DHT22;3643;52.460;13.322;2022-11-13T11:36:06;11.40;99.90
7204;DHT22;3643;52.460;13.322;2022-11-13T11:38:42;11.40;99.90
7204;DHT22;3643;52.460;13.322;2022-11-13T11:41:20;11.50;99.90
7204;DHT22;3643;52.460;13.322;2022-11-13T11:43:55;11.60;99.90
7204;DHT22;3643;52.460;13.322;2022-11-13T11:46:31;11.40;99.90
7204;DHT22;3643;52.460;13.322;2022-11-13T11:49:00;11.50;99.90
7204;DHT22;3643;52.460;13.322;2022-11-13T11:51:31;11.50;99.90
7204;DHT22;3643;52.460;13.322;2022-11-13T11:54:12;11.50;99.90
7204;DHT22;3643;52.460;13.322;2022-11-13T11:56:45;11.50;99.90
7204;DHT22;3643;52.460;13.322;2022-11-13T11:59:40;11.50;99.90
7204;DHT22;3643;52.460;13.322;2022-11-13T12:02:36;11.50;99.90
7204;DHT22;3643;52.460;13.322;2022-11-13T12:05:19;11.40;99.90
7204;DHT22;3643;52.460;13.322;2022-11-13T12:08:01;11.30;99.90
7204;DHT22;3643;52.460;13.322;2022-11-13T12:10:39;11.30;99.90
7204;DHT22;3643;52.460;13.322;2022-11-13T12:13:24;11.30;99.90
7204;DHT22;3643;52.460;13.322;2022-11-13T12:16:02;11.40;99.90
7204;DHT22;3643;52.460;13.322;2022-11-13T12:18:43;11.30;99.90
7204;DHT22;3643;52.460;13.322;2022-11-13T12:21:22;11.30;99.90
7204;DHT22;3643;52.460;13.322;2022-11-13T12:24:04;11.30;99.90
7204;DHT22;3643;52.460;13.322;2022-11-13T12:26:42;11.40;99.90
7204;DHT22;3643;52.460;13.322;2022-11-13T12:29:35;11.40;99.90
7204;DHT22;3643;52.460;13.322;2022-11-13T12:32:18;11.40;99.90
7204;DHT22;3643;52.460;13.322;2022-11-13T12:34:53;11.30;99.90
7204;DHT22;3643;52.460;13.322;2022-11-13T12:37:27;11.30;99.90
7204;DHT22;3643;52.460;13.322;2022-11-13T12:40:04;11.30;99.90
7204;DHT22;3643;52.460;13.322;2022-11-13T12:42:39;11.30;99.90
7204;DHT22;3643;52.460;13.322;2022-11-13T12:45:15;11.30;99.90
7204;DHT22;3643;52.460;13.322;2022-11-13T12:47:46;11.30;99.90
7204;DHT22;3643;52.460;13.322;2022-11-13T12:50:25;11.30;99.90
7204;DHT22;3643;52.460;13.322;2022-11-13T12:53:01;11.40;99.90
7204;DHT22;3643;52.460;13.322;2022-11-13T12:55:31;11.40;99.90
7204;DHT22;3643;52.460;13.322;2022-11-13T12:58:08;11.40;99.90
7204;DHT22;3643;52.460;13.322;2022-11-13T13:00:39;11.40;99.90
7204;DHT22;3643;52.460;13.322;2022-11-13T13:03:26;11.40;99.90
7204;DHT22;3643;52.460;13.322;2022-11-13T13:06:18;11.40;99.90
7204;DHT22;3643;52.460;13.322;2022-11-13T13:09:11;11.40;99.90
7204;DHT22;3643;52.460;13.322;2022-11-13T13:11:48;11.40;99.90
7204;DHT22;3643;52.460;13.322;2022-11-13T13:14:32;11.50;99.90
7204;DHT22;3643;52.460;13.322;2022-11-13T13:17:17;11.50;99.90
7204;DHT22;3643;52.460;13.322;2022-11-13T13:19:57;11.50;99.90
7204;DHT22;3643;52.460;13.322;2022-11-13T13:22:31;11.50;99.90
7204;DHT22;3643;52.460;13.322;2022-11-13T13:25:02;11.50;99.90
7204;DHT22;3643;52.460;13.322;2022-11-13T13:27:38;11.50;99.90
7204;DHT22;3643;52.460;13.322;2022-11-13T13:30:18;11.50;99.90
7204;DHT22;3643;52.460;13.322;2022-11-13T13:32:55;11.50;99.90
7204;DHT22;3643;52.460;13.322;2022-11-13T13:35:30;11.60;99.90
7204;DHT22;3643;52.460;13.322;2022-11-13T13:38:10;11.60;99.90
7204;DHT22;3643;52.460;13.322;2022-11-13T13:41:00;11.60;99.90
7204;DHT22;3643;52.460;13.322;2022-11-13T13:43:41;11.60;99.90
7204;DHT22;3643;52.460;13.322;2022-11-13T13:46:14;11.50;99.90
7204;DHT22;3643;52.460;13.322;2022-11-13T13:48:46;11.50;99.90
7204;DHT22;3643;52.460;13.322;2022-11-13T13:51:22;11.50;99.90
7204;DHT22;3643;52.460;13.322;2022-11-13T13:53:56;11.50;99.90
7204;DHT22;3643;52.460;13.322;2022-11-13T13:56:28;11.50;99.90
7204;DHT22;3643;52.460;13.322;2022-11-13T13:58:57;11.50;99.90
7204;DHT22;3643;52.460;13.322;2022-11-13T14:01:28;11.50;99.90
7204;DHT22;3643;52.460;13.322;2022-11-13T14:04:05;11.50;99.90
7204;DHT22;3643;52.460;13.322;2022-11-13T14:06:47;11.50;99.90
7204;DHT22;3643;52.460;13.322;2022-11-13T14:09:20;11.40;99.90
7204;DHT22;3643;52.460;13.322;2022-11-13T14:11:56;11.40;99.90
7204;DHT22;3643;52.460;13.322;2022-11-13T14:14:27;11.30;99.90
7204;DHT22;3643;52.460;13.322;2022-11-13T14:16:59;11.30;99.90
7204;DHT22;3643;52.460;13.322;2022-11-13T14:19:28;11.20;99.90
7204;DHT22;3643;52.460;13.322;2022-11-13T14:21:58;11.10;99.90
7204;DHT22;3643;52.460;13.322;2022-11-13T14:24:32;11.10;99.90
7204;DHT22;3643;52.460;13.322;2022-11-13T14:27:05;11.00;99.90
7204;DHT22;3643;52.460;13.322;2022-11-13T14:29:39;10.90;99.90
7204;DHT22;3643;52.460;13.322;2022-11-13T14:32:13;10.90;99.90
7204;DHT22;3643;52.460;13.322;2022-11-13T14:34:44;10.90;99.90
7204;DHT22;3643;52.460;13.322;2022-11-13T14:37:22;10.90;99.90
7204;DHT22;3643;52.460;13.322;2022-11-13T14:39:55;10.80;99.90
7204;DHT22;3643;52.460;13.322;2022-11-13T14:42:27;10.70;99.90
7204;DHT22;3643;52.460;13.322;2022-11-13T14:45:13;10.60;99.90
7204;DHT22;3643;52.460;13.322;2022-11-13T14:47:43;10.60;99.90
7204;DHT22;3643;52.460;13.322;2022-11-13T14:50:20;10.50;99.90
7204;DHT22;3643;52.460;13.322;2022-11-13T14:52:57;10.50;99.90
7204;DHT22;3643;52.460;13.322;2022-11-13T14:55:29;10.40;99.90
7204;DHT22;3643;52.460;13.322;2022-11-13T14:57:59;10.30;99.90
7204;DHT22;3643;52.460;13.322;2022-11-13T15:00:30;10.30;99.90
7204;DHT22;3643;52.460;13.322;2022-11-13T15:03:02;10.20;99.90
7204;DHT22;3643;52.460;13.322;2022-11-13T15:05:32;10.20;99.90
7204;DHT22;3643;52.460;13.322;2022-11-13T15:08:01;10.10;99.90
7204;DHT22;3643;52.460;13.322;2022-11-13T15:10:31;10.10;99.90
7204;DHT22;3643;52.460;13.322;2022-11-13T15:13:01;10.00;99.90
7204;DHT22;3643;52.460;13.322;2022-11-13T15:15:29;10.00;99.90
7204;DHT22;3643;52.460;13.322;2022-11-13T15:18:00;9.90;99.90
7204;DHT22;3643;52.460;13.322;2022-11-13T15:20:30;9.80;99.90
7204;DHT22;3643;52.460;13.322;2022-11-13T15:22:59;9.80;99.90
7204;DHT22;3643;52.460;13.322;2022-11-13T15:25:27;9.80;99.90
7204;DHT22;3643;52.460;13.322;2022-11-13T15:27:58;9.70;99.90
7204;DHT22;3643;52.460;13.322;2022-11-13T15:30:26;9.70;99.90
7204;DHT22;3643;52.460;13.322;2022-11-13T15:32:56;9.70;99.90
7204;DHT22;3643;52.460;13.322;2022-11-13T15:35:25;9.70;99.90
7204;DHT22;3643;52.460;13.322;2022-11-13T15:37:54;9.60;99.90
7204;DHT22;3643;52.460;13.322;2022-11-13T15:40:24;9.60;99.90
7204;DHT22;3643;52.460;13.322;2022-11-13T15:42:52;9.60;99.90
7204;DHT22;3643;52.460;13.322;2022-11-13T15:45:22;9.50;99.90
7204;DHT22;3643;52.460;13.322;2022-11-13T15:47:52;9.40;99.90
7204;DHT22;3643;52.460;13.322;2022-11-13T15:50:22;9.40;99.90
7204;DHT22;3643;52.460;13.322;2022-11-13T15:52:51;9.40;99.90
7204;DHT22;3643;52.460;13.322;2022-11-13T15:55:27;9.40;99.90
7204;DHT22;3643;52.460;13.322;2022-11-13T15:57:57;9.30;99.90
7204;DHT22;3643;52.460;13.322;2022-11-13T16:00:28;9.30;99.90
7204;DHT22;3643;52.460;13.322;2022-11-13T16:02:56;9.20;99.90
7204;DHT22;3643;52.460;13.322;2022-11-13T16:05:26;9.20;99.90
7204;DHT22;3643;52.460;13.322;2022-11-13T16:07:56;9.20;99.90
7204;DHT22;3643;52.460;13.322;2022-11-13T16:10:24;9.10;99.90
7204;DHT22;3643;52.460;13.322;2022-11-13T16:12:53;9.10;99.90
7204;DHT22;3643;52.460;13.322;2022-11-13T16:15:23;9.00;99.90
7204;DHT22;3643;52.460;13.322;2022-11-13T16:17:55;9.00;99.90
7204;DHT22;3643;52.460;13.322;2022-11-13T16:20:24;8.90;99.90
7204;DHT22;3643;52.460;13.322;2022-11-13T16:22:53;8.90;99.90
7204;DHT22;3643;52.460;13.322;2022-11-13T16:25:22;8.90;99.90
7204;DHT22;3643;52.460;13.322;2022-11-13T16:27:51;8.80;99.90
7204;DHT22;3643;52.460;13.322;2022-11-13T16:30:21;8.80;99.90
7204;DHT22;3643;52.460;13.322;2022-11-13T16:32:54;8.80;99.90
7204;DHT22;3643;52.460;13.322;2022-11-13T16:35:24;8.80;99.90
7204;DHT22;3643;52.460;13.322;2022-11-13T16:37:57;8.70;99.90
7204;DHT22;3643;52.460;13.322;2022-11-13T16:40:26;8.90;99.90
7204;DHT22;3643;52.460;13.322;2022-11-13T16:42:55;8.60;99.90
7204;DHT22;3643;52.460;13.322;2022-11-13T16:45:24;8.60;99.90
7204;DHT22;3643;52.460;13.322;2022-11-13T16:47:55;8.60;99.90
7204;DHT22;3643;52.460;13.322;2022-11-13T16:50:28;8.60;99.90
7204;DHT22;3643;52.460;13.322;2022-11-13T16:52:57;8.50;99.90
7204;DHT22;3643;52.460;13.322;2022-11-13T16:55:28;8.40;99.90
7204;DHT22;3643;52.460;13.322;2022-11-13T16:57:58;8.40;99.90
7204;DHT22;3643;52.460;13.322;2022-11-13T17:00:27;8.40;99.90
7204;DHT22;3643;52.460;13.322;2022-11-13T17:02:57;8.40;99.90
7204;DHT22;3643;52.460;13.322;2022-11-13T17:05:26;8.30;99.90
7204;DHT22;3643;52.460;13.322;2022-11-13T17:07:58;8.20;99.90
7204;DHT22;3643;52.460;13.322;2022-11-13T17:10:27;8.20;99.90
7204;DHT22;3643;52.460;13.322;2022-11-13T17:13:03;8.10;99.90
7204;DHT22;3643;52.460;13.322;2022-11-13T17:15:38;7.80;99.90
7204;DHT22;3643;52.460;13.322;2022-11-13T17:18:33;8.10;99.90
7204;DHT22;3643;52.460;13.322;2022-11-13T17:21:05;8.00;99.90
7204;DHT22;3643;52.460;13.322;2022-11-13T17:23:34;8.00;99.90
7204;DHT22;3643;52.460;13.322;2022-11-13T17:26:03;7.90;99.90
7204;DHT22;3643;52.460;13.322;2022-11-13T17:28:34;7.90;99.90
7204;DHT22;3643;52.460;13.322;2022-11-13T17:31:04;7.90;99.90
7204;DHT22;3643;52.460;13.322;2022-11-13T17:33:34;7.80;99.90
7204;DHT22;3643;52.460;13.322;2022-11-13T17:36:07;7.80;99.90
7204;DHT22;3643;52.460;13.322;2022-11-13T17:38:36;7.70;99.90
7204;DHT22;3643;52.460;13.322;2022-11-13T17:41:06;7.70;99.90
7204;DHT22;3643;52.460;13.322;2022-11-13T17:43:36;7.60;99.90
7204;DHT22;3643;52.460;13.322;2022-11-13T17:46:09;7.60;99.90
7204;DHT22;3643;52.460;13.322;2022-11-13T17:48:39;7.60;99.90
7204;DHT22;3643;52.460;13.322;2022-11-13T17:51:10;7.60;99.90
7204;DHT22;3643;52.460;13.322;2022-11-13T17:53:40;7.60;99.90
7204;DHT22;3643;52.460;13.322;2022-11-13T17:56:10;7.50;99.90
7204;DHT22;3643;52.460;13.322;2022-11-13T17:58:41;7.60;99.90
7204;DHT22;3643;52.460;13.322;2022-11-13T18:01:13;7.50;99.90
7204;DHT22;3643;52.460;13.322;2022-11-13T18:03:45;7.50;99.90
7204;DHT22;3643;52.460;13.322;2022-11-13T18:06:16;7.50;99.90
7204;DHT22;3643;52.460;13.322;2022-11-13T18:08:47;7.60;99.90
7204;DHT22;3643;52.460;13.322;2022-11-13T18:11:18;7.60;99.90
7204;DHT22;3643;52.460;13.322;2022-11-13T18:13:49;7.50;99.90
7204;DHT22;3643;52.460;13.322;2022-11-13T18:16:20;7.50;99.90
7204;DHT22;3643;52.460;13.322;2022-11-13T18:18:52;7.50;99.90
7204;DHT22;3643;52.460;13.322;2022-11-13T18:21:24;7.50;99.90
7204;DHT22;3643;52.460;13.322;2022-11-13T18:23:57;7.50;99.90
7204;DHT22;3643;52.460;13.322;2022-11-13T18:26:27;7.50;99.90
7204;DHT22;3643;52.460;13.322;2022-11-13T18:28:56;7.40;99.90
7204;DHT22;3643;52.460;13.322;2022-11-13T18:31:25;7.40;99.90
7204;DHT22;3643;52.460;13.322;2022-11-13T18:33:57;7.30;99.90
7204;DHT22;3643;52.460;13.322;2022-11-13T18:36:26;7.30;99.90
7204;DHT22;3643;52.460;13.322;2022-11-13T18:38:54;7.20;99.90
7204;DHT22;3643;52.460;13.322;2022-11-13T18:41:29;7.20;99.90
7204;DHT22;3643;52.460;13.322;2022-11-13T18:43:58;7.20;99.90
7204;DHT22;3643;52.460;13.322;2022-11-13T18:46:27;7.10;99.90
7204;DHT22;3643;52.460;13.322;2022-11-13T18:48:58;7.00;99.90
7204;DHT22;3643;52.460;13.322;2022-11-13T18:51:27;7.00;99.90
7204;DHT22;3643;52.460;13.322;2022-11-13T18:53:56;7.00;99.90
7204;DHT22;3643;52.460;13.322;2022-11-13T18:56:28;6.90;99.90
7204;DHT22;3643;52.460;13.322;2022-11-13T18:58:58;6.90;99.90
7204;DHT22;3643;52.460;13.322;2022-11-13T19:01:29;6.90;99.90
7204;DHT22;3643;52.460;13.322;2022-11-13T19:04:02;6.90;99.90
7204;DHT22;3643;52.460;13.322;2022-11-13T19:06:50;6.90;99.90
7204;DHT22;3643;52.460;13.322;2022-11-13T19:09:19;6.90;99.90
7204;DHT22;3643;52.460;13.322;2022-11-13T19:11:48;6.90;99.90
7204;DHT22;3643;52.460;13.322;2022-11-13T19:14:23;7.00;99.90
7204;DHT22;3643;52.460;13.322;2022-11-13T19:16:51;7.00;99.90
7204;DHT22;3643;52.460;13.322;2022-11-13T19:19:26;7.00;99.90
7204;DHT22;3643;52.460;13.322;2022-11-13T19:21:54;7.00;99.90
7204;DHT22;3643;52.460;13.322;2022-11-13T19:24:22;7.00;99.90
7204;DHT22;3643;52.460;13.322;2022-11-13T19:26:51;7.00;99.90
7204;DHT22;3643;52.460;13.322;2022-11-13T19:29:20;7.00;99.90
7204;DHT22;3643;52.460;13.322;2022-11-13T19:31:49;7.00;99.90
7204;DHT22;3643;52.460;13.322;2022-11-13T19:34:27;7.00;99.90
7204;DHT22;3643;52.460;13.322;2022-11-13T19:36:55;6.90;99.90
7204;DHT22;3643;52.460;13.322;2022-11-13T19:39:24;6.90;99.90
7204;DHT22;3643;52.460;13.322;2022-11-13T19:41:53;6.90;99.90
7204;DHT22;3643;52.460;13.322;2022-11-13T19:44:27;6.90;99.90
7204;DHT22;3643;52.460;13.322;2022-11-13T19:46:55;5.20;99.90
7204;DHT22;3643;52.460;13.322;2022-11-13T19:49:24;6.90;99.90
7204;DHT22;3643;52.460;13.322;2022-11-13T19:51:54;6.90;99.90
7204;DHT22;3643;52.460;13.322;2022-11-13T19:54:23;6.80;99.90
7204;DHT22;3643;52.460;13.322;2022-11-13T19:56:51;6.80;99.90
7204;DHT22;3643;52.460;13.322;2022-11-13T19:59:20;6.80;99.90
7204;DHT22;3643;52.460;13.322;2022-11-13T20:01:54;6.80;99.90
7204;DHT22;3643;52.460;13.322;2022-11-13T20:04:23;6.70;99.90
7204;DHT22;3643;52.460;13.322;2022-11-13T20:06:51;6.70;99.90
7204;DHT22;3643;52.460;13.322;2022-11-13T20:09:23;6.60;99.90
7204;DHT22;3643;52.460;13.322;2022-11-13T20:11:55;6.60;99.90
7204;DHT22;3643;52.460;13.322;2022-11-13T20:14:25;6.60;99.90
7204;DHT22;3643;52.460;13.322;2022-11-13T20:16:55;6.60;99.90
7204;DHT22;3643;52.460;13.322;2022-11-13T20:19:25;6.50;99.90
7204;DHT22;3643;52.460;13.322;2022-11-13T20:21:54;6.40;99.90
7204;DHT22;3643;52.460;13.322;2022-11-13T20:24:24;6.40;99.90
7204;DHT22;3643;52.460;13.322;2022-11-13T20:26:53;6.30;99.90
7204;DHT22;3643;52.460;13.322;2022-11-13T20:29:23;6.30;99.90
7204;DHT22;3643;52.460;13.322;2022-11-13T20:31:52;6.30;99.90
7204;DHT22;3643;52.460;13.322;2022-11-13T20:34:20;5.60;99.90
7204;DHT22;3643;52.460;13.322;2022-11-13T20:36:49;6.30;99.90
7204;DHT22;3643;52.460;13.322;2022-11-13T20:39:17;6.30;99.90
7204;DHT22;3643;52.460;13.322;2022-11-13T20:41:53;6.30;99.90
7204;DHT22;3643;52.460;13.322;2022-11-13T20:44:23;6.30;99.90
7204;DHT22;3643;52.460;13.322;2022-11-13T20:46:51;6.30;99.90
7204;DHT22;3643;52.460;13.322;2022-11-13T20:49:20;6.30;99.90
7204;DHT22;3643;52.460;13.322;2022-11-13T20:51:49;6.30;99.90
7204;DHT22;3643;52.460;13.322;2022-11-13T20:54:25;6.20;99.90
7204;DHT22;3643;52.460;13.322;2022-11-13T20:56:55;6.30;99.90
7204;DHT22;3643;52.460;13.322;2022-11-13T20:59:24;6.30;99.90
7204;DHT22;3643;52.460;13.322;2022-11-13T21:01:54;6.20;99.90
7204;DHT22;3643;52.460;13.322;2022-11-13T21:04:24;6.20;99.90
7204;DHT22;3643;52.460;13.322;2022-11-13T21:06:53;6.20;99.90
7204;DHT22;3643;52.460;13.322;2022-11-13T21:09:24;6.20;99.90
7204;DHT22;3643;52.460;13.322;2022-11-13T21:11:52;6.20;99.90
7204;DHT22;3643;52.460;13.322;2022-11-13T21:14:27;6.20;99.90
7204;DHT22;3643;52.460;13.322;2022-11-13T21:16:56;6.70;99.90